createdAt,value
2023-02-02T00:02:16.795Z,99175.03
2023-02-02T00:06:23.577Z,99170.19
2023-02-02T00:10:27.647Z,99166.13
2023-02-02T00:14:30.011Z,99176.56
2023-02-02T00:18:32.026Z,99170.19
2023-02-02T00:22:34.183Z,99174.84
2023-02-02T00:26:36.882Z,99168.31
2023-02-02T00:30:38.906Z,99167.56
2023-02-02T00:34:40.947Z,99156.69
2023-02-02T00:38:43.010Z,99157.38
2023-02-02T00:42:49.225Z,99158.53
2023-02-02T00:46:51.425Z,99150.81
2023-02-02T00:51:02.556Z,99158.81
2023-02-02T00:55:11.148Z,99166.84
2023-02-02T00:59:15.571Z,99167.44
2023-02-02T01:03:20.752Z,99173.50
2023-02-02T01:07:26.366Z,99171.16
2023-02-02T01:11:31.053Z,99176.41
2023-02-02T01:15:33.257Z,99177.16
2023-02-02T01:19:35.330Z,99158.50
2023-02-02T01:23:45.753Z,99153.66
2023-02-02T01:27:55.525Z,99165.47
2023-02-02T01:31:58.615Z,99159.94
2023-02-02T01:36:04.278Z,99166.78
2023-02-02T01:40:48.553Z,99172.09
2023-02-02T01:45:07.014Z,99173.09
2023-02-02T01:49:25.665Z,99172.88
2023-02-02T01:53:33.745Z,99177.41
2023-02-02T01:57:43.856Z,99174.44
2023-02-02T02:01:48.933Z,99158.00
2023-02-02T02:05:54.940Z,99167.19
2023-02-02T02:09:57.239Z,99168.50
2023-02-02T02:14:40.413Z,99163.63
2023-02-02T02:18:43.421Z,99155.41
2023-02-02T02:23:10.210Z,99145.38
2023-02-02T02:27:18.334Z,99147.25
2023-02-02T02:31:43.911Z,99131.88
2023-02-02T02:35:49.251Z,99134.63
2023-02-02T02:39:57.867Z,99131.19
2023-02-02T02:44:09.639Z,99133.13
2023-02-02T02:48:15.131Z,99136.31
2023-02-02T02:52:17.548Z,99137.06
2023-02-02T02:56:34.926Z,99139.13
2023-02-02T03:00:48.306Z,99130.28
2023-02-02T03:05:10.469Z,99141.16
2023-02-02T03:09:15.787Z,99140.25
2023-02-02T03:13:17.973Z,99136.88
2023-02-02T03:17:22.479Z,99135.44
2023-02-02T03:21:30.530Z,99130.41
2023-02-02T03:25:32.624Z,99127.41
2023-02-02T03:29:34.862Z,99126.84
2023-02-02T03:33:37.715Z,99135.59
2023-02-02T03:37:39.639Z,99132.09
2023-02-02T03:41:41.788Z,99131.28
2023-02-02T03:45:43.784Z,99127.03
2023-02-02T03:49:57.606Z,99132.09
2023-02-02T03:53:59.800Z,99120.16
2023-02-02T03:58:01.688Z,99124.22
2023-02-02T04:02:10.159Z,99122.25
2023-02-02T04:06:16.488Z,99128.13
2023-02-02T04:10:18.662Z,99133.16
2023-02-02T04:14:23.662Z,99134.72
2023-02-02T04:18:34.881Z,99141.41
2023-02-02T04:22:37.031Z,99144.44
2023-02-02T04:26:39.445Z,99160.19
2023-02-02T04:30:41.880Z,99166.28
2023-02-02T04:34:44.615Z,99161.81
2023-02-02T04:38:49.306Z,99169.47
2023-02-02T04:42:51.506Z,99179.38
2023-02-02T04:46:53.487Z,99176.56
2023-02-02T04:51:01.804Z,99168.28
2023-02-02T04:55:04.077Z,99170.28
2023-02-02T04:59:06.064Z,99172.25
2023-02-02T05:03:08.179Z,99159.78
2023-02-02T05:07:10.190Z,99171.03
2023-02-02T05:11:13.723Z,99170.25
2023-02-02T05:15:17.498Z,99171.59
2023-02-02T05:19:19.591Z,99178.78
2023-02-02T05:23:21.596Z,99183.53
2023-02-02T05:27:27.190Z,99196.41
2023-02-02T05:31:30.903Z,99184.31
2023-02-02T05:35:33.233Z,99183.19
2023-02-02T05:39:35.475Z,99176.22
2023-02-02T05:43:40.039Z,99175.16
2023-02-02T05:47:42.056Z,99173.97
2023-02-02T05:51:46.595Z,99178.59
2023-02-02T05:55:48.738Z,99184.69
2023-02-02T05:59:50.983Z,99183.38
2023-02-02T06:03:53.179Z,99189.19
2023-02-02T06:07:55.335Z,99195.47
2023-02-02T06:11:57.731Z,99185.88
2023-02-02T06:15:59.801Z,99189.00
2023-02-02T06:20:02.185Z,99199.53
2023-02-02T06:24:04.464Z,99192.66
2023-02-02T06:28:07.912Z,99204.22
2023-02-02T06:32:10.166Z,99200.56
2023-02-02T06:36:12.262Z,99198.31
2023-02-02T06:40:14.245Z,99203.16
2023-02-02T06:44:16.233Z,99195.19
2023-02-02T06:48:18.327Z,99207.09
2023-02-02T06:52:20.389Z,99209.66
2023-02-02T06:56:22.966Z,99203.09
2023-02-02T07:00:29.512Z,99228.06
2023-02-02T07:04:32.381Z,99225.41
2023-02-02T07:08:34.392Z,99229.97
2023-02-02T07:12:36.571Z,99221.72
2023-02-02T07:16:38.550Z,99213.81
2023-02-02T07:20:40.609Z,99223.22
2023-02-02T07:24:42.584Z,99224.84
2023-02-02T07:28:45.143Z,99225.88
2023-02-02T07:32:50.681Z,99227.84
2023-02-02T07:36:52.787Z,99226.59
2023-02-02T07:40:54.828Z,99243.66
2023-02-02T07:44:57.335Z,99247.06
2023-02-02T07:49:00.405Z,99254.31
2023-02-02T07:53:02.433Z,99251.25
2023-02-02T07:57:04.453Z,99263.72
2023-02-02T08:01:07.671Z,99265.97
2023-02-02T08:05:10.077Z,99275.75
2023-02-02T08:09:12.785Z,99278.72
2023-02-02T08:13:14.763Z,99281.03
2023-02-02T08:17:17.315Z,99281.34
2023-02-02T08:21:19.842Z,99284.88
2023-02-02T08:25:21.821Z,99290.34
2023-02-02T08:29:23.869Z,99298.34
2023-02-02T08:33:25.911Z,99288.13
2023-02-02T08:37:27.937Z,99283.63
2023-02-02T08:41:30.065Z,99297.94
2023-02-02T08:46:01.236Z,99295.19
2023-02-02T08:49:54.354Z,99300.34
2023-02-02T08:53:56.638Z,99293.25
2023-02-02T08:57:58.634Z,99302.59
2023-02-02T09:02:00.688Z,99308.66
2023-02-02T09:06:21.302Z,99292.91
2023-02-02T09:10:23.512Z,99309.34
2023-02-02T09:14:25.606Z,99304.69
2023-02-02T09:18:27.666Z,99299.41
2023-02-02T09:22:30.001Z,99300.22
2023-02-02T09:26:32.430Z,99301.78
2023-02-02T09:30:35.662Z,99297.25
2023-02-02T09:34:40.102Z,99298.81
2023-02-02T09:38:42.613Z,99300.31
2023-02-02T09:43:04.221Z,99305.47
2023-02-02T09:47:18.251Z,99309.84
2023-02-02T09:51:23.649Z,99315.63
2023-02-02T09:55:32.895Z,99309.81
2023-02-02T09:59:37.207Z,99314.69
2023-02-02T10:04:02.031Z,99304.59
2023-02-02T10:08:07.798Z,99301.97
2023-02-02T10:12:28.782Z,99304.19
2023-02-02T10:16:31.382Z,99294.94
2023-02-02T10:20:39.617Z,99288.19
2023-02-02T10:24:42.704Z,99289.06
2023-02-02T10:29:07.990Z,99282.53
2023-02-02T10:33:18.592Z,99271.63
2023-02-02T10:37:50.410Z,99270.69
2023-02-02T10:41:58.524Z,99271.06
2023-02-02T10:46:01.613Z,99258.31
2023-02-02T10:50:12.878Z,99262.56
2023-02-02T10:54:55.308Z,99271.44
2023-02-02T10:59:03.956Z,99255.28
2023-02-02T11:03:07.380Z,99257.81
2023-02-02T11:07:10.902Z,99248.13
2023-02-02T11:11:21.805Z,99237.78
2023-02-02T11:15:25.985Z,99237.53
2023-02-02T11:19:29.917Z,99231.75
2023-02-02T11:23:32.501Z,99232.75
2023-02-02T11:27:42.767Z,99226.44
2023-02-02T11:31:45.309Z,99222.84
2023-02-02T11:35:55.022Z,99226.09
2023-02-02T11:40:17.089Z,99217.25
2023-02-02T11:44:24.942Z,99204.19
2023-02-02T11:48:37.703Z,99191.91
2023-02-02T11:52:40.771Z,99185.94
2023-02-02T11:56:48.496Z,99175.34
2023-02-02T12:00:58.574Z,99169.09
2023-02-02T12:05:16.257Z,99158.72
2023-02-02T12:09:21.572Z,99152.84
2023-02-02T12:13:29.678Z,99136.31
2023-02-02T12:17:33.158Z,99130.44
2023-02-02T12:21:41.372Z,99125.22
2023-02-02T12:25:59.271Z,99128.47
2023-02-02T12:30:20.125Z,99123.16
2023-02-02T12:34:25.090Z,99122.47
2023-02-02T12:38:27.057Z,99113.91
2023-02-02T12:42:41.258Z,99107.59
2023-02-02T12:46:50.031Z,99095.50
2023-02-02T12:50:52.027Z,99086.88
2023-02-02T12:54:57.755Z,99090.34
2023-02-02T12:59:20.211Z,99093.06
2023-02-02T13:03:25.387Z,99084.91
2023-02-02T13:07:40.747Z,99089.44
2023-02-02T13:11:56.153Z,99085.97
2023-02-02T13:16:13.144Z,99095.63
2023-02-02T13:20:24.610Z,99085.00
2023-02-02T13:24:28.725Z,99086.38
2023-02-02T13:28:49.541Z,99082.97
2023-02-02T13:32:53.283Z,99078.75
2023-02-02T13:37:01.986Z,99083.06
2023-02-02T13:41:07.893Z,99071.00
2023-02-02T13:45:30.178Z,99076.38
2023-02-02T13:49:52.672Z,99072.16
2023-02-02T13:54:12.206Z,99079.41
2023-02-02T13:58:23.467Z,99081.78
2023-02-02T14:02:45.650Z,99083.16
2023-02-02T14:06:59.466Z,99082.63
2023-02-02T14:11:03.305Z,99084.75
2023-02-02T14:15:07.124Z,99087.44
2023-02-02T14:19:35.212Z,99084.00
2023-02-02T14:23:57.773Z,99084.00
2023-02-02T14:28:00.972Z,99084.28
2023-02-02T14:32:03.044Z,99096.03
2023-02-02T14:36:05.724Z,99097.34
2023-02-02T14:40:08.666Z,99097.09
2023-02-02T14:44:10.762Z,99095.72
2023-02-02T14:48:16.096Z,99094.94
2023-02-02T14:52:22.208Z,99092.56
2023-02-02T14:56:41.631Z,99098.94
2023-02-02T15:00:45.049Z,99100.78
2023-02-02T15:04:49.568Z,99111.72
2023-02-02T15:09:10.406Z,99099.72
2023-02-02T15:13:16.602Z,99093.31
2023-02-02T15:17:27.954Z,99099.66
2023-02-02T15:21:31.888Z,99103.38
2023-02-02T15:25:36.536Z,99118.84
2023-02-02T15:29:44.239Z,99115.94
2023-02-02T15:33:48.487Z,99110.25
2023-02-02T15:37:54.301Z,99118.06
2023-02-02T15:42:17.048Z,99115.88
2023-02-02T15:46:24.604Z,99109.34
2023-02-02T15:50:27.206Z,99121.34
2023-02-02T15:54:30.524Z,99129.50
2023-02-02T15:58:34.367Z,99134.75
2023-02-02T16:02:39.591Z,99140.22
2023-02-02T16:06:42.048Z,99147.31
2023-02-02T16:10:46.552Z,99149.31
2023-02-02T16:14:52.357Z,99170.97
2023-02-02T16:19:20.778Z,99171.59
2023-02-02T16:23:31.530Z,99196.66
2023-02-02T16:27:34.301Z,99198.00
2023-02-02T16:31:36.522Z,99195.31
2023-02-02T16:35:39.098Z,99199.09
2023-02-02T16:39:41.558Z,99208.56
2023-02-02T16:43:43.638Z,99202.56
2023-02-02T16:47:45.677Z,99195.63
2023-02-02T16:51:49.258Z,99203.72
2023-02-02T16:55:51.868Z,99219.84
2023-02-02T16:59:55.776Z,99214.63
2023-02-02T17:03:58.376Z,99215.88
2023-02-02T17:08:04.541Z,99226.75
2023-02-02T17:12:30.755Z,99239.97
2023-02-02T17:16:34.565Z,99232.34
2023-02-02T17:20:36.654Z,99246.66
2023-02-02T17:24:38.691Z,99248.41
2023-02-02T17:28:41.470Z,99251.66
2023-02-02T17:32:43.847Z,99256.47
2023-02-02T17:36:45.778Z,99257.81
2023-02-02T17:40:48.594Z,99271.25
2023-02-02T17:44:50.638Z,99269.56
2023-02-02T17:48:52.600Z,99266.66
2023-02-02T17:52:54.877Z,99275.66
2023-02-02T17:56:56.852Z,99280.28
2023-02-02T18:00:59.484Z,99279.50
2023-02-02T18:05:02.075Z,99277.13
2023-02-02T18:09:04.180Z,99289.66
2023-02-02T18:13:06.517Z,99284.69
2023-02-02T18:17:09.123Z,99300.44
2023-02-02T18:21:11.486Z,99295.81
2023-02-02T18:25:14.105Z,99297.03
2023-02-02T18:29:16.246Z,99302.41
2023-02-02T18:33:19.860Z,99302.75
2023-02-02T18:37:26.001Z,99301.34
2023-02-02T18:41:27.961Z,99303.00
2023-02-02T18:45:30.223Z,99307.03
2023-02-02T18:49:32.489Z,99305.44
2023-02-02T18:53:34.989Z,99317.41
2023-02-02T18:57:37.188Z,99312.38
2023-02-02T19:01:39.376Z,99327.00
2023-02-02T19:06:00.161Z,99326.56
2023-02-02T19:10:02.318Z,99336.53
2023-02-02T19:14:06.365Z,99337.94
2023-02-02T19:18:27.259Z,99337.97
2023-02-02T19:22:32.341Z,99342.81
2023-02-02T19:26:37.373Z,99345.25
2023-02-02T19:30:45.037Z,99353.34
2023-02-02T19:34:47.519Z,99365.09
2023-02-02T19:38:51.981Z,99363.03
2023-02-02T19:43:00.167Z,99369.91
2023-02-02T19:47:02.886Z,99375.19
2023-02-02T19:51:26.240Z,99385.38
2023-02-02T19:55:29.701Z,99396.41
2023-02-02T19:59:35.467Z,99401.50
2023-02-02T20:03:44.028Z,99400.09
2023-02-02T20:07:46.551Z,99403.72
2023-02-02T20:11:51.421Z,99404.16
2023-02-02T20:16:03.582Z,99413.78
2023-02-02T20:20:19.578Z,99415.72
2023-02-02T20:24:50.069Z,99427.22
2023-02-02T20:28:53.117Z,99423.25
2023-02-02T20:32:56.075Z,99436.47
2023-02-02T20:37:02.753Z,99440.81
2023-02-02T20:41:05.945Z,99454.00
2023-02-02T20:45:07.906Z,99444.41
2023-02-02T20:49:09.940Z,99444.16
2023-02-02T20:53:14.808Z,99449.72
2023-02-02T20:57:17.791Z,99451.03
2023-02-02T21:01:19.772Z,99441.66
2023-02-02T21:05:22.307Z,99443.53
2023-02-02T21:09:24.295Z,99441.34
2023-02-02T21:13:26.262Z,99445.84
2023-02-02T21:17:28.260Z,99449.59
2023-02-02T21:21:30.634Z,99452.75
2023-02-02T21:25:32.744Z,99462.69
2023-02-02T21:29:35.349Z,99465.78
2023-02-02T21:33:37.575Z,99475.41
2023-02-02T21:37:40.613Z,99474.34
2023-02-02T21:41:42.789Z,99467.28
2023-02-02T21:45:49.612Z,99480.31
2023-02-02T21:49:52.962Z,99481.31
2023-02-02T21:53:57.263Z,99487.09
2023-02-02T21:58:00.385Z,99493.81
2023-02-02T22:02:18.461Z,99513.28
2023-02-02T22:06:26.420Z,99512.09
2023-02-02T22:10:34.528Z,99497.97
2023-02-02T22:14:37.829Z,99500.59
2023-02-02T22:18:40.057Z,99504.38
2023-02-02T22:22:44.959Z,99509.47
2023-02-02T22:26:47.776Z,99510.72
2023-02-02T22:30:51.460Z,99510.97
2023-02-02T22:34:53.497Z,99518.03
2023-02-02T22:38:55.463Z,99524.09
2023-02-02T22:43:05.845Z,99531.94
2023-02-02T22:47:07.851Z,99543.44
2023-02-02T22:51:09.863Z,99549.84
2023-02-02T22:55:12.312Z,99562.66
2023-02-02T22:59:14.491Z,99568.03
2023-02-02T23:03:16.480Z,99564.69
2023-02-02T23:07:18.386Z,99558.00
2023-02-02T23:11:20.312Z,99559.38
2023-02-02T23:15:22.998Z,99559.47
2023-02-02T23:19:25.037Z,99551.78
2023-02-02T23:23:27.030Z,99565.38
2023-02-02T23:27:28.997Z,99566.00
2023-02-02T23:31:31.151Z,99559.88
2023-02-02T23:35:33.177Z,99575.47
2023-02-02T23:39:35.360Z,99568.31
2023-02-02T23:43:39.536Z,99569.19
2023-02-02T23:47:41.691Z,99565.88
2023-02-02T23:51:44.427Z,99548.94
2023-02-02T23:55:47.526Z,99552.44
2023-02-02T23:59:49.708Z,99551.47
